createdAt,value
2017-10-14T00:01:05.195Z,15.00
2017-10-14T00:03:34.148Z,15.00
2017-10-14T00:06:03.413Z,15.10
2017-10-14T00:08:32.617Z,15.10
2017-10-14T00:11:00.913Z,15.00
2017-10-14T00:13:29.242Z,15.00
2017-10-14T00:15:58.452Z,15.00
2017-10-14T00:18:27.656Z,15.00
2017-10-14T00:20:55.943Z,15.00
2017-10-14T00:23:25.009Z,15.00
2017-10-14T00:25:56.099Z,15.00
2017-10-14T00:28:24.433Z,15.00
2017-10-14T00:30:52.746Z,15.00
2017-10-14T00:33:21.089Z,15.00
2017-10-14T00:35:49.416Z,15.10
2017-10-14T00:38:17.807Z,15.00
2017-10-14T00:40:46.099Z,15.00
2017-10-14T00:43:14.455Z,15.00
2017-10-14T00:45:42.768Z,15.00
2017-10-14T00:48:11.095Z,15.00
2017-10-14T00:50:39.476Z,15.00
2017-10-14T00:53:08.569Z,15.00
2017-10-14T00:55:36.865Z,15.00
2017-10-14T00:58:08.423Z,15.00
2017-10-14T01:00:36.780Z,15.00
2017-10-14T01:03:06.051Z,15.00
2017-10-14T01:05:35.063Z,15.00
2017-10-14T01:08:03.379Z,15.00
2017-10-14T01:10:31.715Z,15.00
2017-10-14T01:13:00.090Z,15.00
2017-10-14T01:15:28.416Z,15.00
2017-10-14T01:17:57.851Z,14.90
2017-10-14T01:20:26.159Z,15.00
2017-10-14T01:22:54.479Z,14.90
2017-10-14T01:25:23.588Z,15.00
2017-10-14T01:27:53.511Z,14.90
2017-10-14T01:30:22.672Z,15.00
2017-10-14T01:32:51.133Z,15.00
2017-10-14T01:35:19.494Z,14.90
2017-10-14T01:37:47.827Z,14.90
2017-10-14T01:40:16.131Z,14.90
2017-10-14T01:42:44.435Z,15.00
2017-10-14T01:45:13.584Z,14.90
2017-10-14T01:47:41.915Z,14.90
2017-10-14T01:50:12.149Z,14.90
2017-10-14T01:52:41.238Z,14.80
2017-10-14T01:55:09.584Z,14.80
2017-10-14T01:57:39.739Z,14.80
2017-10-14T02:00:08.852Z,14.70
2017-10-14T02:02:37.913Z,14.80
2017-10-14T02:05:06.348Z,14.80
2017-10-14T02:07:34.659Z,14.90
2017-10-14T02:10:03.848Z,14.70
2017-10-14T02:12:32.168Z,14.70
2017-10-14T02:15:00.495Z,14.70
2017-10-14T02:17:28.920Z,14.70
2017-10-14T02:19:57.261Z,14.60
2017-10-14T02:22:25.561Z,14.60
2017-10-14T02:24:53.877Z,14.60
2017-10-14T02:27:23.123Z,14.60
2017-10-14T02:29:51.428Z,14.60
2017-10-14T02:32:20.524Z,14.60
2017-10-14T02:34:48.853Z,14.50
2017-10-14T02:37:17.968Z,14.50
2017-10-14T02:39:47.066Z,14.40
2017-10-14T02:42:18.392Z,14.40
2017-10-14T02:44:46.695Z,14.40
2017-10-14T02:47:15.087Z,14.40
2017-10-14T02:49:43.412Z,14.40
2017-10-14T02:52:11.746Z,14.40
2017-10-14T02:54:40.043Z,14.30
2017-10-14T02:57:08.343Z,14.40
2017-10-14T02:59:36.662Z,14.30
2017-10-14T03:02:04.951Z,14.40
2017-10-14T03:04:33.275Z,14.40
2017-10-14T03:07:01.725Z,14.40
2017-10-14T03:09:30.798Z,14.30
2017-10-14T03:11:59.869Z,14.30
2017-10-14T03:14:28.342Z,14.30
2017-10-14T03:16:56.652Z,14.20
2017-10-14T03:19:25.738Z,14.10
2017-10-14T03:21:55.651Z,14.10
2017-10-14T03:24:23.953Z,14.10
2017-10-14T03:26:53.481Z,14.00
2017-10-14T03:29:21.841Z,13.90
2017-10-14T03:31:50.978Z,13.90
2017-10-14T03:34:19.275Z,13.90
2017-10-14T03:36:47.596Z,13.80
2017-10-14T03:39:15.942Z,13.80
2017-10-14T03:41:45.767Z,13.60
2017-10-14T03:44:15.558Z,13.60
2017-10-14T03:46:52.048Z,13.50
2017-10-14T03:49:26.932Z,13.50
2017-10-14T03:51:56.114Z,13.40
2017-10-14T03:54:24.470Z,13.40
2017-10-14T03:56:52.792Z,13.40
2017-10-14T03:59:22.844Z,13.30
2017-10-14T04:01:51.973Z,13.30
2017-10-14T04:04:20.275Z,13.20
2017-10-14T04:06:48.590Z,13.20
2017-10-14T04:09:16.907Z,13.20
2017-10-14T04:11:45.232Z,13.10
2017-10-14T04:14:13.524Z,13.10
2017-10-14T04:16:41.825Z,13.10
2017-10-14T04:19:10.237Z,13.10
2017-10-14T04:21:38.588Z,13.00
2017-10-14T04:24:06.885Z,13.00
2017-10-14T04:26:35.990Z,13.00
2017-10-14T04:29:05.056Z,12.90
2017-10-14T04:31:33.370Z,12.90
2017-10-14T04:34:01.712Z,12.90
2017-10-14T04:36:30.024Z,12.80
2017-10-14T04:38:59.108Z,12.80
2017-10-14T04:41:28.951Z,12.80
2017-10-14T04:43:57.277Z,12.80
2017-10-14T04:46:26.410Z,12.80
2017-10-14T04:48:55.500Z,12.80
2017-10-14T04:51:23.956Z,12.70
2017-10-14T04:53:52.382Z,12.70
2017-10-14T04:56:20.757Z,12.80
2017-10-14T04:58:49.112Z,12.70
2017-10-14T05:01:22.230Z,12.70
2017-10-14T05:03:50.590Z,12.70
2017-10-14T05:06:20.621Z,12.70
2017-10-14T05:08:50.699Z,12.70
2017-10-14T05:11:19.976Z,12.60
2017-10-14T05:13:48.342Z,12.60
2017-10-14T05:16:17.405Z,12.60
2017-10-14T05:18:45.714Z,12.50
2017-10-14T05:21:14.006Z,12.50
2017-10-14T05:23:42.403Z,12.50
2017-10-14T05:26:10.716Z,12.50
2017-10-14T05:28:39.049Z,12.40
2017-10-14T05:31:07.376Z,12.40
2017-10-14T05:33:35.677Z,12.40
2017-10-14T05:36:04.081Z,12.30
2017-10-14T05:38:33.315Z,12.30
2017-10-14T05:41:02.406Z,12.30
2017-10-14T05:43:30.697Z,12.30
2017-10-14T05:45:59.053Z,12.20
2017-10-14T05:48:27.347Z,12.20
2017-10-14T05:50:55.681Z,12.20
2017-10-14T05:53:24.004Z,12.20
2017-10-14T05:55:52.333Z,12.20
2017-10-14T05:58:20.693Z,12.20
2017-10-14T06:00:49.763Z,12.20
2017-10-14T06:03:18.089Z,12.20
2017-10-14T06:05:46.424Z,12.20
2017-10-14T06:08:14.760Z,12.20
2017-10-14T06:10:43.075Z,12.20
2017-10-14T06:13:11.443Z,12.20
2017-10-14T06:15:39.760Z,12.30
2017-10-14T06:18:08.066Z,12.30
2017-10-14T06:20:36.446Z,12.30
2017-10-14T06:23:05.297Z,12.40
2017-10-14T06:25:33.668Z,12.40
2017-10-14T06:28:01.996Z,12.60
2017-10-14T06:30:30.319Z,12.70
2017-10-14T06:32:59.524Z,12.90
2017-10-14T06:35:27.870Z,13.20
2017-10-14T06:37:56.218Z,13.50
2017-10-14T06:40:24.546Z,13.80
2017-10-14T06:42:52.858Z,14.00
2017-10-14T06:45:21.988Z,14.20
2017-10-14T06:47:51.128Z,14.70
2017-10-14T06:50:19.714Z,14.70
2017-10-14T06:52:49.890Z,15.00
2017-10-14T06:55:18.230Z,14.90
2017-10-14T06:57:46.533Z,15.20
2017-10-14T07:00:14.849Z,15.30
2017-10-14T07:02:43.169Z,15.30
2017-10-14T07:05:11.555Z,15.40
2017-10-14T07:07:39.896Z,15.60
2017-10-14T07:10:08.249Z,15.80
2017-10-14T07:12:36.578Z,15.90
2017-10-14T07:15:07.427Z,16.00
2017-10-14T07:17:38.201Z,16.10
2017-10-14T07:20:07.308Z,16.20
2017-10-14T07:22:35.704Z,16.40
2017-10-14T07:25:04.051Z,16.60
2017-10-14T07:27:38.750Z,16.80
2017-10-14T07:30:07.100Z,16.80
2017-10-14T07:32:35.528Z,16.80
2017-10-14T07:35:03.933Z,17.00
2017-10-14T07:37:34.099Z,17.00
2017-10-14T07:40:02.544Z,17.20
2017-10-14T07:42:30.857Z,17.40
2017-10-14T07:44:59.749Z,17.20
2017-10-14T07:47:28.087Z,17.50
2017-10-14T07:49:56.396Z,17.50
2017-10-14T07:52:24.703Z,17.40
2017-10-14T07:54:53.057Z,17.60
2017-10-14T07:57:22.121Z,17.90
2017-10-14T07:59:52.812Z,18.20
2017-10-14T08:02:22.284Z,18.20
2017-10-14T08:04:53.481Z,18.60
2017-10-14T08:07:22.572Z,18.90
2017-10-14T08:09:51.077Z,18.90
2017-10-14T08:12:19.739Z,19.10
2017-10-14T08:14:48.154Z,18.80
2017-10-14T08:17:16.555Z,18.80
2017-10-14T08:19:45.650Z,19.00
2017-10-14T08:22:14.075Z,19.50
2017-10-14T08:24:43.498Z,19.70
2017-10-14T08:27:12.608Z,20.00
2017-10-14T08:29:40.972Z,20.00
2017-10-14T08:32:10.967Z,19.70
2017-10-14T08:34:39.546Z,19.80
2017-10-14T08:37:07.871Z,19.70
2017-10-14T08:39:36.202Z,19.70
2017-10-14T08:42:06.416Z,19.50
2017-10-14T08:44:34.831Z,19.50
2017-10-14T08:47:04.206Z,19.50
2017-10-14T08:49:32.530Z,19.90
2017-10-14T08:52:00.843Z,20.00
2017-10-14T08:54:29.186Z,20.10
2017-10-14T08:56:57.652Z,20.30
2017-10-14T08:59:26.012Z,20.60
2017-10-14T09:01:54.311Z,20.50
2017-10-14T09:04:22.649Z,20.50
2017-10-14T09:06:50.956Z,20.40
2017-10-14T09:09:19.254Z,20.10
2017-10-14T09:11:48.575Z,20.10
2017-10-14T09:14:17.743Z,20.30
2017-10-14T09:16:46.906Z,20.20
2017-10-14T09:19:15.309Z,20.50
2017-10-14T09:21:45.048Z,20.90
2017-10-14T09:24:17.282Z,21.00
2017-10-14T09:26:46.693Z,21.60
2017-10-14T09:29:17.856Z,21.20
2017-10-14T09:31:48.614Z,21.20
2017-10-14T09:34:19.341Z,21.30
2017-10-14T09:36:47.852Z,21.40
2017-10-14T09:39:16.628Z,21.20
2017-10-14T09:41:45.071Z,21.30
2017-10-14T09:44:16.628Z,21.50
2017-10-14T09:46:44.919Z,21.50
2017-10-14T09:49:13.223Z,21.70
2017-10-14T09:51:41.613Z,21.70
2017-10-14T09:54:13.916Z,22.20
2017-10-14T09:56:46.248Z,22.60
2017-10-14T09:59:16.881Z,22.80
2017-10-14T10:01:46.533Z,22.80
2017-10-14T10:04:16.952Z,22.80
2017-10-14T10:06:45.521Z,22.80
2017-10-14T10:09:14.711Z,22.50
2017-10-14T10:11:43.169Z,22.50
2017-10-14T10:14:11.563Z,22.50
2017-10-14T10:16:42.839Z,22.60
2017-10-14T10:19:11.159Z,22.60
2017-10-14T10:21:41.054Z,22.70
2017-10-14T10:24:12.705Z,22.40
2017-10-14T10:26:43.070Z,22.40
2017-10-14T10:29:14.777Z,22.50
2017-10-14T10:31:43.906Z,21.80
2017-10-14T10:34:12.248Z,21.80
2017-10-14T10:36:41.351Z,22.70
2017-10-14T10:39:09.676Z,22.70
2017-10-14T10:41:39.916Z,23.00
2017-10-14T10:44:11.171Z,23.10
2017-10-14T10:46:39.614Z,23.20
2017-10-14T10:49:07.966Z,23.40
2017-10-14T10:51:38.009Z,23.40
2017-10-14T10:54:06.413Z,23.50
2017-10-14T10:56:35.871Z,23.70
2017-10-14T10:59:04.209Z,23.70
2017-10-14T11:01:32.599Z,23.40
2017-10-14T11:04:04.741Z,23.10
2017-10-14T11:06:34.016Z,23.10
2017-10-14T11:09:05.598Z,23.20
2017-10-14T11:11:43.657Z,23.00
2017-10-14T11:14:12.022Z,23.00
2017-10-14T11:16:44.545Z,23.30
2017-10-14T11:19:13.745Z,23.30
2017-10-14T11:21:42.122Z,23.40
2017-10-14T11:24:11.418Z,23.20
2017-10-14T11:26:40.720Z,23.10
2017-10-14T11:29:09.019Z,23.10
2017-10-14T11:31:37.340Z,23.40
2017-10-14T11:34:06.479Z,23.60
2017-10-14T11:36:35.627Z,23.60
2017-10-14T11:39:05.201Z,23.60
2017-10-14T11:41:34.036Z,23.40
2017-10-14T11:44:05.569Z,23.70
2017-10-14T11:46:33.908Z,23.60
2017-10-14T11:49:03.116Z,24.00
2017-10-14T11:51:32.007Z,24.30
2017-10-14T11:54:04.990Z,24.10
2017-10-14T11:56:33.579Z,23.80
2017-10-14T11:59:01.896Z,23.70
2017-10-14T12:01:32.947Z,24.00
2017-10-14T12:04:07.582Z,23.90
2017-10-14T12:06:41.489Z,24.30
2017-10-14T12:09:11.190Z,24.60
2017-10-14T12:11:39.709Z,24.70
2017-10-14T12:14:12.863Z,24.10
2017-10-14T12:16:42.255Z,24.10
2017-10-14T12:19:10.583Z,23.40
2017-10-14T12:21:40.044Z,23.60
2017-10-14T12:24:12.707Z,23.60
2017-10-14T12:26:43.233Z,23.60
2017-10-14T12:29:13.469Z,23.20
2017-10-14T12:31:41.973Z,23.40
2017-10-14T12:34:16.111Z,23.40
2017-10-14T12:36:44.460Z,23.50
2017-10-14T12:39:12.864Z,23.70
2017-10-14T12:41:42.250Z,24.00
2017-10-14T12:44:10.686Z,24.00
2017-10-14T12:46:39.261Z,24.10
2017-10-14T12:49:08.917Z,23.80
2017-10-14T12:51:37.336Z,23.80
2017-10-14T12:54:05.734Z,23.40
2017-10-14T12:56:34.065Z,23.10
2017-10-14T12:59:05.260Z,23.10
2017-10-14T13:01:34.339Z,23.30
2017-10-14T13:04:06.426Z,23.60
2017-10-14T13:06:34.888Z,23.60
2017-10-14T13:09:04.970Z,23.50
2017-10-14T13:11:34.543Z,23.40
2017-10-14T13:14:02.985Z,23.10
2017-10-14T13:16:34.789Z,23.00
2017-10-14T13:19:03.161Z,23.00
2017-10-14T13:21:31.573Z,23.10
2017-10-14T13:23:59.924Z,23.10
2017-10-14T13:26:28.300Z,23.10
2017-10-14T13:28:57.808Z,23.00
2017-10-14T13:31:26.762Z,23.20
2017-10-14T13:33:55.122Z,23.30
2017-10-14T13:36:24.541Z,23.10
2017-10-14T13:38:54.696Z,22.80
2017-10-14T13:41:25.547Z,22.80
2017-10-14T13:43:53.893Z,22.80
2017-10-14T13:46:22.252Z,22.90
2017-10-14T13:48:50.563Z,22.90
2017-10-14T13:51:22.396Z,23.00
2017-10-14T13:53:50.753Z,23.00
2017-10-14T13:56:19.844Z,23.00
2017-10-14T13:58:48.154Z,23.00
2017-10-14T14:01:16.519Z,23.00
2017-10-14T14:03:46.438Z,22.80
2017-10-14T14:06:14.870Z,22.80
2017-10-14T14:08:43.979Z,22.90
2017-10-14T14:11:14.003Z,22.70
2017-10-14T14:13:44.821Z,22.60
2017-10-14T14:16:14.323Z,22.60
2017-10-14T14:18:48.444Z,22.50
2017-10-14T14:21:17.469Z,22.50
2017-10-14T14:23:46.080Z,22.60
2017-10-14T14:26:15.502Z,22.30
2017-10-14T14:28:44.659Z,22.30
2017-10-14T14:31:13.972Z,22.20
2017-10-14T14:33:46.854Z,22.10
2017-10-14T14:36:17.051Z,22.10
2017-10-14T14:38:45.787Z,22.10
2017-10-14T14:41:15.265Z,22.00
2017-10-14T14:43:43.735Z,22.00
2017-10-14T14:46:12.267Z,21.90
2017-10-14T14:48:44.037Z,21.90
2017-10-14T14:51:12.329Z,21.80
2017-10-14T14:53:41.509Z,21.80
2017-10-14T14:56:09.870Z,21.80
2017-10-14T14:58:39.736Z,21.90
2017-10-14T15:01:09.993Z,21.90
2017-10-14T15:03:39.106Z,21.90
2017-10-14T15:06:09.577Z,21.80
2017-10-14T15:08:41.043Z,21.80
2017-10-14T15:11:09.505Z,21.80
2017-10-14T15:16:18.372Z,21.80
2017-10-14T15:18:47.138Z,21.70
2017-10-14T15:21:15.513Z,21.60
2017-10-14T15:23:43.842Z,21.50
2017-10-14T15:26:13.301Z,21.50
2017-10-14T15:28:44.061Z,21.40
2017-10-14T15:31:21.526Z,21.30
2017-10-14T15:33:51.746Z,21.10
2017-10-14T15:36:20.155Z,21.00
2017-10-14T15:38:51.282Z,20.80
2017-10-14T15:41:20.409Z,20.70
2017-10-14T15:43:50.483Z,20.70
2017-10-14T15:46:18.855Z,20.60
2017-10-14T15:48:48.567Z,20.50
2017-10-14T15:51:17.048Z,20.50
2017-10-14T15:53:45.799Z,20.50
2017-10-14T15:56:14.728Z,20.50
2017-10-14T15:58:52.766Z,20.50
2017-10-14T16:01:28.697Z,20.50
2017-10-14T16:06:47.321Z,20.40
2017-10-14T16:09:18.768Z,20.40
2017-10-14T16:11:55.370Z,20.40
2017-10-14T16:14:34.414Z,20.30
2017-10-14T16:17:03.592Z,20.20
2017-10-14T16:19:32.717Z,20.20
2017-10-14T16:22:01.248Z,20.10
2017-10-14T16:24:29.651Z,20.00
2017-10-14T16:26:58.013Z,20.00
2017-10-14T16:29:26.335Z,19.90
2017-10-14T16:31:57.933Z,19.80
2017-10-14T16:34:26.310Z,19.80
2017-10-14T16:36:54.709Z,19.60
2017-10-14T16:39:31.290Z,19.60
2017-10-14T16:41:59.652Z,19.50
2017-10-14T16:44:28.041Z,19.50
2017-10-14T16:46:57.554Z,19.40
2017-10-14T16:49:27.750Z,19.30
2017-10-14T16:51:56.335Z,19.20
2017-10-14T16:54:25.526Z,19.20
2017-10-14T16:56:57.154Z,19.00
2017-10-14T16:59:25.548Z,19.00
2017-10-14T17:01:53.937Z,18.90
2017-10-14T17:04:23.932Z,18.90
2017-10-14T17:06:54.906Z,18.80
2017-10-14T17:09:24.395Z,18.70
2017-10-14T17:11:53.832Z,18.50
2017-10-14T17:14:27.541Z,18.30
2017-10-14T17:16:57.958Z,18.20
2017-10-14T17:19:28.320Z,18.20
2017-10-14T17:21:57.550Z,18.30
2017-10-14T17:24:25.894Z,18.20
2017-10-14T17:26:54.246Z,18.20
2017-10-14T17:29:23.338Z,18.10
2017-10-14T17:31:51.738Z,18.10
2017-10-14T17:34:22.235Z,18.10
2017-10-14T17:36:50.876Z,18.00
2017-10-14T17:39:21.757Z,17.80
2017-10-14T17:41:53.729Z,17.70
2017-10-14T17:44:22.498Z,17.50
2017-10-14T17:46:55.243Z,17.40
2017-10-14T17:49:24.921Z,17.30
2017-10-14T17:51:57.318Z,17.10
2017-10-14T17:54:29.178Z,17.10
2017-10-14T17:56:57.603Z,17.00
2017-10-14T17:59:25.922Z,17.00
2017-10-14T18:01:54.255Z,17.10
2017-10-14T18:04:24.731Z,17.10
2017-10-14T18:06:53.087Z,17.10
2017-10-14T18:09:23.672Z,17.10
2017-10-14T18:11:53.537Z,17.00
2017-10-14T18:14:21.879Z,17.00
2017-10-14T18:16:53.319Z,17.00
2017-10-14T18:19:38.576Z,16.90
2017-10-14T18:22:09.098Z,16.80
2017-10-14T18:24:37.654Z,16.70
2017-10-14T18:27:06.811Z,16.60
2017-10-14T18:29:38.027Z,16.60
2017-10-14T18:32:07.480Z,16.60
2017-10-14T18:34:35.828Z,16.50
2017-10-14T18:37:04.940Z,16.10
2017-10-14T18:39:34.000Z,16.10
2017-10-14T18:42:02.482Z,16.10
2017-10-14T18:44:31.851Z,16.20
2017-10-14T18:47:00.195Z,16.10
2017-10-14T18:49:28.509Z,16.30
2017-10-14T18:52:01.064Z,16.30
2017-10-14T18:54:30.440Z,16.40
2017-10-14T18:57:02.656Z,16.40
2017-10-14T18:59:30.976Z,16.40
2017-10-14T19:02:00.038Z,16.40
2017-10-14T19:04:28.368Z,16.30
2017-10-14T19:06:56.740Z,16.20
2017-10-14T19:09:25.282Z,16.10
2017-10-14T19:11:55.704Z,15.80
2017-10-14T19:14:24.170Z,15.80
2017-10-14T19:16:55.036Z,15.70
2017-10-14T19:19:26.530Z,15.60
2017-10-14T19:21:55.031Z,15.50
2017-10-14T19:24:25.499Z,15.50
2017-10-14T19:27:00.041Z,15.60
2017-10-14T19:29:28.404Z,15.60
2017-10-14T19:31:57.708Z,15.50
2017-10-14T19:34:29.016Z,15.40
2017-10-14T19:36:57.538Z,15.40
2017-10-14T19:39:28.836Z,15.40
2017-10-14T19:41:57.868Z,15.40
2017-10-14T19:44:26.425Z,15.30
2017-10-14T19:46:55.786Z,15.30
2017-10-14T19:49:30.500Z,15.20
2017-10-14T19:51:59.496Z,15.20
2017-10-14T19:54:27.858Z,15.20
2017-10-14T19:56:56.187Z,15.20
2017-10-14T19:59:25.672Z,15.20
2017-10-14T20:01:54.965Z,15.20
2017-10-14T20:04:32.751Z,15.20
2017-10-14T20:07:01.929Z,15.20
2017-10-14T20:09:31.517Z,15.20
2017-10-14T20:12:52.418Z,15.20
2017-10-14T20:15:21.734Z,15.20
2017-10-14T20:17:52.132Z,15.20
2017-10-14T20:20:21.625Z,15.20
2017-10-14T20:22:50.918Z,15.10
2017-10-14T20:25:20.901Z,15.10
2017-10-14T20:27:50.208Z,15.00
2017-10-14T20:30:23.936Z,15.00
2017-10-14T20:33:01.576Z,14.90
2017-10-14T20:35:58.423Z,14.90
2017-10-14T20:38:26.874Z,14.80
2017-10-14T20:40:55.444Z,14.70
2017-10-14T20:43:23.971Z,14.70
2017-10-14T20:45:58.102Z,14.60
2017-10-14T20:48:28.763Z,14.50
2017-10-14T20:50:57.269Z,14.40
2017-10-14T20:53:25.836Z,14.30
2017-10-14T20:56:06.473Z,14.20
2017-10-14T20:58:38.033Z,14.10
2017-10-14T21:01:11.972Z,14.10
2017-10-14T21:03:40.438Z,14.20
2017-10-14T21:06:09.652Z,14.30
2017-10-14T21:08:39.426Z,14.40
2017-10-14T21:11:08.906Z,14.40
2017-10-14T21:13:41.879Z,14.50
2017-10-14T21:16:10.174Z,14.50
2017-10-14T21:18:40.621Z,14.50
2017-10-14T21:21:09.865Z,14.40
2017-10-14T21:23:39.770Z,14.20
2017-10-14T21:26:09.136Z,14.20
2017-10-14T21:28:37.512Z,14.20
2017-10-14T21:31:05.809Z,14.20
2017-10-14T21:33:34.123Z,14.20
2017-10-14T21:36:02.427Z,14.20
2017-10-14T21:38:30.741Z,14.20
2017-10-14T21:40:59.058Z,14.10
2017-10-14T21:43:30.318Z,14.00
2017-10-14T21:45:59.542Z,14.00
2017-10-14T21:48:28.004Z,13.80
2017-10-14T21:50:56.377Z,13.60
2017-10-14T21:53:24.687Z,13.60
2017-10-14T21:55:53.913Z,13.60
2017-10-14T21:58:23.801Z,13.70
2017-10-14T22:00:53.092Z,13.70
2017-10-14T22:03:26.463Z,13.70
2017-10-14T22:06:08.455Z,13.80
2017-10-14T22:08:38.825Z,13.80
2017-10-14T22:11:15.270Z,13.80
2017-10-14T22:13:44.278Z,13.80
2017-10-14T22:16:13.390Z,13.80
2017-10-14T22:18:42.617Z,13.80
2017-10-14T22:21:11.340Z,13.70
2017-10-14T22:23:45.753Z,13.80
2017-10-14T22:26:14.101Z,13.80
2017-10-14T22:28:42.402Z,13.70
2017-10-14T22:31:10.803Z,13.70
2017-10-14T22:33:41.332Z,13.70
2017-10-14T22:36:10.437Z,13.60
2017-10-14T22:38:38.764Z,13.60
2017-10-14T22:41:07.070Z,13.60
2017-10-14T22:43:35.417Z,13.60
2017-10-14T22:46:03.804Z,13.50
2017-10-14T22:48:32.622Z,13.50
2017-10-14T22:51:02.896Z,13.50
2017-10-14T22:53:33.171Z,13.40
2017-10-14T22:56:02.612Z,13.40
2017-10-14T22:58:31.005Z,13.40
2017-10-14T23:00:59.520Z,13.40
2017-10-14T23:03:28.885Z,13.30
2017-10-14T23:05:57.394Z,13.00
2017-10-14T23:08:26.963Z,12.80
2017-10-14T23:10:55.901Z,12.70
2017-10-14T23:13:27.897Z,12.70
2017-10-14T23:15:56.417Z,12.60
2017-10-14T23:18:24.906Z,12.70
2017-10-14T23:20:54.949Z,12.70
2017-10-14T23:23:24.961Z,12.80
2017-10-14T23:25:53.819Z,12.80
2017-10-14T23:28:22.099Z,12.80
2017-10-14T23:30:50.446Z,12.90
2017-10-14T23:33:18.735Z,12.90
2017-10-14T23:35:47.822Z,12.70
2017-10-14T23:38:16.938Z,12.70
2017-10-14T23:40:45.228Z,12.60
2017-10-14T23:43:13.544Z,12.60
2017-10-14T23:45:42.215Z,12.50
2017-10-14T23:48:10.568Z,12.40
2017-10-14T23:50:38.903Z,12.40
2017-10-14T23:53:07.198Z,12.40
2017-10-14T23:55:35.518Z,12.40
2017-10-14T23:58:03.815Z,12.40
